This is the latest recevied weather packets stored in our database for station/object KC3AWA. If no packets are shown the sender has not sent any weather packets the latest 10 day(s).
| Time | Temp. | Humidity | Pressure | Rain* | Wind** | Luminosity | Snow |
|---|---|---|---|---|---|---|---|
| 1778092598 | 12.22° C | 65% | 1011.4 hPa | 0 mm | - | 152 W/m² | - |
| 1778092294 | 12.22° C | 65% | 1011.3 hPa | 0 mm | - | 301 W/m² | - |
| 1778091992 | 12.78° C | 64% | 1011.4 hPa | 0 mm | - | 281 W/m² | - |
| 1778091688 | 12.78° C | 64% | 1011.6 hPa | 0 mm | - | 656 W/m² | - |
| 1778091386 | 12.22° C | 67% | 1011.7 hPa | 0 mm | - | 812 W/m² | - |
| 1778091083 | 12.78° C | 66% | 1011.6 hPa | 0 mm | - | 753 W/m² | - |
| 1778090780 | 12.78° C | 68% | 1011.5 hPa | 0 mm | - | 381 W/m² | - |
| 1778090476 | 12.22° C | 73% | 1011.4 hPa | 0 mm | - | 734 W/m² | - |
| 1778090173 | 11.11° C | 74% | 1011.3 hPa | 0 mm | - | 600 W/m² | - |
| 1778089869 | 11.11° C | 77% | 1011.5 hPa | 0 mm | - | 315 W/m² | - |
| 1778089568 | 10.56° C | 77% | 1011.5 hPa | 0 mm | - | 257 W/m² | - |
| 1778089264 | 11.11° C | 77% | 1011.5 hPa | 0 mm | - | 84 W/m² | - |
| 1778088962 | 11.11° C | 79% | 1011.3 hPa | 0 mm | - | 282 W/m² | - |
| 1778088658 | 10.56° C | 80% | 1011.3 hPa | 0 mm | - | 1002 W/m² | - |
| 1778088356 | 10° C | 82% | 1011.3 hPa | 0 mm | - | 402 W/m² | - |
| 1778088052 | 10° C | 81% | 1011.2 hPa | 0 mm | - | 100 W/m² | - |
| 1778087749 | 10° C | 82% | 1011 hPa | 0 mm | - | 82 W/m² | - |
| 1778087447 | 10° C | 81% | 1011.3 hPa | 0 mm | - | 89 W/m² | - |
| 1778087144 | 10° C | 79% | 1011.2 hPa | 0 mm | - | 133 W/m² | - |
| 1778086842 | 10.56° C | 78% | 1011.2 hPa | 0 mm | - | 153 W/m² | - |
| 1778086540 | 10.56° C | 79% | 1011 hPa | 0 mm | - | 126 W/m² | - |
| 1778086236 | 10.56° C | 77% | 1010.8 hPa | 0 mm | - | 133 W/m² | - |
| 1778085933 | 10.56° C | 77% | 1010.9 hPa | 0 mm | - | 296 W/m² | - |
| 1778085630 | 10.56° C | 77% | 1011 hPa | 0 mm | - | 226 W/m² | - |
| 1778085326 | 10.56° C | 78% | 1010.8 hPa | 0 mm | - | 302 W/m² | - |
* Rain latest hour (hover to see other rain measurements)
** Current wind speed in m/s (hover to see current wind gust speed)